Kapetan Fotis — SY5230 — position and weather

sailwx.info

Track history (hours):
 
Tides and Currents Weather Stations Pressure Air Temp Water Temp Dewpoint Dewpoint Depression Visibility Wind Speed Wind Dir Waves Ship Positions

Kapetan Fotis

Last reported at 2017-Oct-25 09:59 UTC. Time now 2017-Nov-17 21:18 UTC.
Position N 40°16' E 024°09'.
Warning: this ship's position is 23 days out of date.

Length 33 m; draft 2.5 m.

Type: Passenger vessel. MMSI: 237813500.

Date/timePositionNaut miles runAvg speedWind from/ knotsBaromVisibWave heightAir tempDewpointWater temp
2017-Oct-25 09:59N 40°16' E 024°09'510.8
2017-Oct-25 09:30N 40°12' E 024°13'2 3.1
2017-Oct-25 09:00N 40°11' E 024°15'510.5
2017-Oct-25 08:30N 40°15' E 024°11'9 0.2
2017-Oct-23 10:57N 40°18' E 023°60'611.2
2017-Oct-23 10:25N 40°15' E 024°06'411.0
2017-Oct-23 10:00N 40°12' E 024°11'4 8.8
2017-Oct-23 09:31N 40°10' E 024°16'610.7
2017-Oct-23 08:55N 40°15' E 024°11'410.5
2017-Oct-23 08:30N 40°17' E 024°06'9 0.4
2017-Oct-22 11:37N 40°20' E 023°55'0 4.6
2017-Oct-22 11:30N 40°20' E 023°56'4 7.0
2017-Oct-22 11:00N 40°19' E 023°60'610.6
2017-Oct-22 10:28N 40°16' E 024°07'3 6.9
2017-Oct-22 10:00N 40°15' E 024°11'510.5
2017-Oct-22 09:29N 40°11' E 024°15'4 5.6
2017-Oct-22 08:51N 40°13' E 024°12'4 9.0
2017-Oct-22 08:25N 40°16' E 024°09'511.0
2017-Oct-22 08:00N 40°17' E 024°03'6 0.3
2017-Oct-21 11:42N 40°20' E 023°55'1 7.6
2017-Oct-21 11:30N 40°20' E 023°57'3 6.8
2017-Oct-21 11:00N 40°18' E 024°01'611.0
2017-Oct-21 10:30N 40°15' E 024°07'511.0
2017-Oct-21 10:00N 40°12' E 024°13'1 1.2
2017-Oct-21 09:24N 40°11' E 024°14'410.7
2017-Oct-21 09:00N 40°15' E 024°11'510.6
2017-Oct-21 08:30N 40°17' E 024°04'8 0.4
2017-Oct-20 11:35N 40°20' E 023°55'0 1.4
2017-Oct-20 11:30N 40°20' E 023°55'4 7.1
2017-Oct-20 10:57N 40°19' E 023°60'510.9
2017-Oct-20 10:27N 40°16' E 024°06'4 8.5
2017-Oct-20 10:00N 40°15' E 024°11'610.7
2017-Oct-20 09:29N 40°10' E 024°15'3 5.9
2017-Oct-20 09:00N 40°12' E 024°13'5 9.1
2017-Oct-20 08:29N 40°16' E 024°09'510.8
2017-Oct-20 08:00N 40°17' E 024°03'5 0.1
2017-Oct-18 10:15N 40°16' E 024°08'2 8.4
2017-Oct-18 09:59N 40°15' E 024°11'4 4.5
2017-Oct-18 09:04N 40°11' E 024°14'110.7
2017-Oct-18 08:59N 40°12' E 024°13'5 9.6
2017-Oct-18 08:30N 40°16' E 024°10'611.0
2017-Oct-18 08:00N 40°17' E 024°03'6 0.3
2017-Oct-17 11:30N 40°20' E 023°56'3 6.8
2017-Oct-17 10:59N 40°19' E 023°60'511.0
2017-Oct-17 10:30N 40°16' E 024°06'4 8.1
2017-Oct-17 09:59N 40°15' E 024°11'510.4
2017-Oct-17 09:29N 40°10' E 024°15'2 4.6
2017-Oct-17 09:00N 40°12' E 024°13'5 9.1
2017-Oct-17 08:30N 40°16' E 024°10'510.8
2017-Oct-17 08:01N 40°17' E 024°03'7 0.4
2017-Oct-16 13:53N 40°20' E 023°55'0 0.5
2017-Oct-16 12:58N 40°21' E 023°56'2 0.8
2017-Oct-16 10:12N 40°19' E 023°57'6 6.6
2017-Oct-16 09:15N 40°16' E 024°05'310.9
2017-Oct-16 09:01N 40°15' E 024°08'2 2.9
2017-Oct-16 08:29N 40°16' E 024°10'510.4
2017-Oct-16 08:00N 40°17' E 024°04'  
Track history (hours):
 
Tides and Currents Weather Stations Pressure Air Temp Water Temp Dewpoint Dewpoint Depression Visibility Wind Speed Wind Dir Waves Ship Positions

Kapetan Fotis

Last reported at 2017-Oct-25 09:59 UTC. Time now 2017-Nov-17 21:18 UTC.
Position N 40°16' E 024°09'.
Warning: this ship's position is 23 days out of date.

Length 33 m; draft 2.5 m.

Type: Passenger vessel. MMSI: 237813500.

Date/timePositionNaut miles runAvg speedWind from/ knotsBaromVisibWave heightAir tempDewpointWater temp
2017-Oct-25 09:59N 40°16' E 024°09'510.8
2017-Oct-25 09:30N 40°12' E 024°13'2 3.1
2017-Oct-25 09:00N 40°11' E 024°15'510.5
2017-Oct-25 08:30N 40°15' E 024°11'9 0.2
2017-Oct-23 10:57N 40°18' E 023°60'611.2
2017-Oct-23 10:25N 40°15' E 024°06'411.0
2017-Oct-23 10:00N 40°12' E 024°11'4 8.8
2017-Oct-23 09:31N 40°10' E 024°16'610.7
2017-Oct-23 08:55N 40°15' E 024°11'410.5
2017-Oct-23 08:30N 40°17' E 024°06'9 0.4
2017-Oct-22 11:37N 40°20' E 023°55'0 4.6
2017-Oct-22 11:30N 40°20' E 023°56'4 7.0
2017-Oct-22 11:00N 40°19' E 023°60'610.6
2017-Oct-22 10:28N 40°16' E 024°07'3 6.9
2017-Oct-22 10:00N 40°15' E 024°11'510.5
2017-Oct-22 09:29N 40°11' E 024°15'4 5.6
2017-Oct-22 08:51N 40°13' E 024°12'4 9.0
2017-Oct-22 08:25N 40°16' E 024°09'511.0
2017-Oct-22 08:00N 40°17' E 024°03'6 0.3
2017-Oct-21 11:42N 40°20' E 023°55'1 7.6
2017-Oct-21 11:30N 40°20' E 023°57'3 6.8
2017-Oct-21 11:00N 40°18' E 024°01'611.0
2017-Oct-21 10:30N 40°15' E 024°07'511.0
2017-Oct-21 10:00N 40°12' E 024°13'1 1.2
2017-Oct-21 09:24N 40°11' E 024°14'410.7
2017-Oct-21 09:00N 40°15' E 024°11'510.6
2017-Oct-21 08:30N 40°17' E 024°04'8 0.4
2017-Oct-20 11:35N 40°20' E 023°55'0 1.4
2017-Oct-20 11:30N 40°20' E 023°55'4 7.1
2017-Oct-20 10:57N 40°19' E 023°60'510.9
2017-Oct-20 10:27N 40°16' E 024°06'4 8.5
2017-Oct-20 10:00N 40°15' E 024°11'610.7
2017-Oct-20 09:29N 40°10' E 024°15'3 5.9
2017-Oct-20 09:00N 40°12' E 024°13'5 9.1
2017-Oct-20 08:29N 40°16' E 024°09'510.8
2017-Oct-20 08:00N 40°17' E 024°03'5 0.1
2017-Oct-18 10:15N 40°16' E 024°08'2 8.4
2017-Oct-18 09:59N 40°15' E 024°11'4 4.5
2017-Oct-18 09:04N 40°11' E 024°14'110.7
2017-Oct-18 08:59N 40°12' E 024°13'5 9.6
2017-Oct-18 08:30N 40°16' E 024°10'611.0
2017-Oct-18 08:00N 40°17' E 024°03'6 0.3
2017-Oct-17 11:30N 40°20' E 023°56'3 6.8
2017-Oct-17 10:59N 40°19' E 023°60'511.0
2017-Oct-17 10:30N 40°16' E 024°06'4 8.1
2017-Oct-17 09:59N 40°15' E 024°11'510.4
2017-Oct-17 09:29N 40°10' E 024°15'2 4.6
2017-Oct-17 09:00N 40°12' E 024°13'5 9.1
2017-Oct-17 08:30N 40°16' E 024°10'510.8
2017-Oct-17 08:01N 40°17' E 024°03'7 0.4
2017-Oct-16 13:53N 40°20' E 023°55'0 0.5
2017-Oct-16 12:58N 40°21' E 023°56'2 0.8
2017-Oct-16 10:12N 40°19' E 023°57'6 6.6
2017-Oct-16 09:15N 40°16' E 024°05'310.9
2017-Oct-16 09:01N 40°15' E 024°08'2 2.9
2017-Oct-16 08:29N 40°16' E 024°10'510.4
2017-Oct-16 08:00N 40°17' E 024°04'  

Dump ship's entire track history